METAR Data
IDs: Format: Raw Decoded Include TAF

Data at: 1409 UTC 10 Jul 2020

VEGT 101400Z 00000KT 3000 BR SCT018 FEW025CB BKN100 30/30 Q0999 NOSIG

TAF VEGT 101400Z 1015/1024 00000KT 3000 -RA BR SCT018 FEW025CB BKNO90